createdAt,value
2018-07-03T00:00:29.951Z,60256.64
2018-07-03T00:02:58.134Z,60254.61
2018-07-03T00:05:26.330Z,60275.95
2018-07-03T00:07:54.499Z,60252.57
2018-07-03T00:10:22.663Z,60230.22
2018-07-03T00:12:50.829Z,60259.69
2018-07-03T00:15:19.006Z,60255.63
2018-07-03T00:17:47.190Z,60266.80
2018-07-03T00:20:15.350Z,60238.35
2018-07-03T00:22:43.546Z,60240.38
2018-07-03T00:25:11.694Z,60263.75
2018-07-03T00:27:39.850Z,60227.17
2018-07-03T00:30:08.007Z,60271.88
2018-07-03T00:32:36.190Z,60251.56
2018-07-03T00:35:04.366Z,60254.61
2018-07-03T00:37:32.550Z,60250.54
2018-07-03T00:40:00.722Z,60288.14
2018-07-03T00:42:28.894Z,60285.09
2018-07-03T00:44:57.062Z,60240.38
2018-07-03T00:47:25.242Z,60276.96
2018-07-03T00:49:53.406Z,60242.41
2018-07-03T00:52:21.590Z,60236.32
2018-07-03T00:54:49.762Z,60258.67
2018-07-03T00:57:17.918Z,60259.69
2018-07-03T00:59:57.294Z,60255.63
2018-07-03T01:02:25.463Z,60287.12
2018-07-03T01:04:53.638Z,60274.93
2018-07-03T01:07:21.818Z,60268.83
2018-07-03T01:09:49.985Z,60251.56
2018-07-03T01:12:18.179Z,60300.34
2018-07-03T01:14:46.346Z,60261.72
2018-07-03T01:17:14.499Z,60273.91
2018-07-03T01:19:42.670Z,60291.19
2018-07-03T01:22:10.826Z,60298.30
2018-07-03T01:24:39.070Z,60264.77
2018-07-03T01:27:07.247Z,60293.22
2018-07-03T01:29:35.430Z,60283.06
2018-07-03T01:32:03.665Z,60273.91
2018-07-03T01:34:31.778Z,60267.82
2018-07-03T01:36:59.942Z,60281.03
2018-07-03T01:39:28.130Z,60275.95
2018-07-03T01:41:56.339Z,60267.82
2018-07-03T01:44:24.498Z,60269.85
2018-07-03T01:46:52.675Z,60276.96
2018-07-03T01:49:20.840Z,60281.03
2018-07-03T01:51:49.038Z,60269.85
2018-07-03T01:54:17.210Z,60265.79
2018-07-03T01:56:45.425Z,60267.82
2018-07-03T01:59:13.622Z,60275.95
2018-07-03T02:01:42.330Z,60254.61
2018-07-03T02:04:10.906Z,60273.91
2018-07-03T02:06:39.090Z,60282.04
2018-07-03T02:09:10.662Z,60290.17
2018-07-03T02:11:39.118Z,60290.17
2018-07-03T02:14:07.494Z,60283.06
2018-07-03T02:16:35.707Z,60270.87
2018-07-03T02:19:04.255Z,60272.90
2018-07-03T02:21:32.642Z,60265.79
2018-07-03T02:24:00.812Z,60289.16
2018-07-03T02:26:28.986Z,60312.53
2018-07-03T02:28:57.171Z,60286.11
2018-07-03T02:31:25.354Z,60278.99
2018-07-03T02:33:53.811Z,60284.07
2018-07-03T02:36:22.034Z,60287.12
2018-07-03T02:38:50.251Z,60282.04
2018-07-03T02:41:18.459Z,60285.09
2018-07-03T02:43:46.663Z,60280.01
2018-07-03T02:46:14.853Z,60293.22
2018-07-03T02:48:43.019Z,60276.96
2018-07-03T02:51:11.186Z,60281.03
2018-07-03T02:53:39.366Z,60298.30
2018-07-03T02:56:07.535Z,60284.07
2018-07-03T02:58:35.711Z,60323.71
2018-07-03T03:01:03.895Z,60278.99
2018-07-03T03:03:32.066Z,60291.19
2018-07-03T03:06:00.290Z,60283.06
2018-07-03T03:08:28.658Z,60297.29
2018-07-03T03:10:56.875Z,60282.04
2018-07-03T03:13:25.035Z,60311.51
2018-07-03T03:15:53.199Z,60289.16
2018-07-03T03:18:21.399Z,60310.50
2018-07-03T03:20:49.574Z,60321.67
2018-07-03T03:23:17.742Z,60301.35
2018-07-03T03:25:45.911Z,60298.30
2018-07-03T03:28:14.078Z,60304.40
2018-07-03T03:30:42.247Z,60298.30
2018-07-03T03:33:10.402Z,60276.96
2018-07-03T03:35:38.600Z,60294.24
2018-07-03T03:38:06.760Z,60301.35
2018-07-03T03:40:34.914Z,60282.04
2018-07-03T03:43:03.077Z,60309.48
2018-07-03T03:45:31.287Z,60301.35
2018-07-03T03:47:59.426Z,60293.22
2018-07-03T03:50:27.609Z,60293.22
2018-07-03T03:52:56.004Z,60291.19
2018-07-03T03:55:24.174Z,60301.35
2018-07-03T03:57:52.334Z,60286.11
2018-07-03T04:00:20.576Z,60293.22
2018-07-03T04:02:48.753Z,60281.03
2018-07-03T04:05:16.938Z,60305.41
2018-07-03T04:07:45.105Z,60273.91
2018-07-03T04:10:13.482Z,60297.29
2018-07-03T04:12:41.635Z,60282.04
2018-07-03T04:15:09.973Z,60302.37
2018-07-03T04:17:38.146Z,60293.22
2018-07-03T04:20:06.906Z,60295.25
2018-07-03T04:22:35.075Z,60291.19
2018-07-03T04:25:03.272Z,60314.56
2018-07-03T04:27:31.462Z,60302.37
2018-07-03T04:29:59.698Z,60302.37
2018-07-03T04:32:27.922Z,60316.59
2018-07-03T04:34:56.302Z,60290.17
2018-07-03T04:37:24.463Z,60286.11
2018-07-03T04:39:52.671Z,60306.43
2018-07-03T04:42:20.838Z,60297.29
2018-07-03T04:44:49.063Z,60278.99
2018-07-03T04:47:17.242Z,60308.46
2018-07-03T04:49:45.406Z,60303.38
2018-07-03T04:52:13.582Z,60315.57
2018-07-03T04:54:41.734Z,60306.43
2018-07-03T04:57:09.954Z,60288.14
2018-07-03T04:59:38.178Z,60285.09
2018-07-03T05:02:06.342Z,60321.67
2018-07-03T05:04:34.512Z,60305.41
2018-07-03T05:07:02.678Z,60283.06
2018-07-03T05:09:30.841Z,60300.34
2018-07-03T05:11:59.030Z,60287.12
2018-07-03T05:14:27.213Z,60299.32
2018-07-03T05:16:57.298Z,60288.14
2018-07-03T05:19:26.614Z,60304.40
2018-07-03T05:21:54.813Z,60307.45
2018-07-03T05:24:23.266Z,60281.03
2018-07-03T05:26:51.797Z,60282.04
2018-07-03T05:29:20.014Z,60273.91
2018-07-03T05:31:48.200Z,60300.34
2018-07-03T05:34:16.347Z,60266.80
2018-07-03T05:36:44.551Z,60289.16
2018-07-03T05:39:13.534Z,60309.48
2018-07-03T05:41:41.709Z,60295.25
2018-07-03T05:44:09.883Z,60290.17
2018-07-03T05:46:39.082Z,60294.24
2018-07-03T05:49:07.278Z,60280.01
2018-07-03T05:51:35.634Z,60256.64
2018-07-03T05:54:03.874Z,60282.04
2018-07-03T05:56:32.286Z,60277.98
2018-07-03T05:59:00.382Z,60287.12
2018-07-03T06:01:28.579Z,60282.04
2018-07-03T06:03:56.825Z,60272.90
2018-07-03T06:06:24.994Z,60305.41
2018-07-03T06:08:53.182Z,60267.82
2018-07-03T06:11:21.354Z,60257.66
2018-07-03T06:13:49.518Z,60269.85
2018-07-03T06:16:17.674Z,60266.80
2018-07-03T06:18:45.842Z,60288.14
2018-07-03T06:21:14.030Z,60260.71
2018-07-03T06:23:42.205Z,60268.83
2018-07-03T06:26:10.362Z,60292.21
2018-07-03T06:28:38.666Z,60280.01
2018-07-03T06:31:06.878Z,60276.96
2018-07-03T06:33:35.161Z,60263.75
2018-07-03T06:36:03.335Z,60275.95
2018-07-03T06:38:31.490Z,60284.07
2018-07-03T06:40:59.654Z,60257.66
2018-07-03T06:43:27.944Z,60254.61
2018-07-03T06:45:56.103Z,60272.90
2018-07-03T06:48:24.262Z,60277.98
2018-07-03T06:50:53.313Z,60265.79
2018-07-03T06:53:21.477Z,60282.04
2018-07-03T06:55:49.646Z,60252.57
2018-07-03T06:58:17.982Z,60246.48
2018-07-03T07:00:46.161Z,60257.66
2018-07-03T07:03:14.338Z,60257.66
2018-07-03T07:05:42.795Z,60259.69
2018-07-03T07:08:10.962Z,60271.88
2018-07-03T07:10:39.126Z,60272.90
2018-07-03T07:13:07.434Z,60261.72
2018-07-03T07:15:35.592Z,60253.59
2018-07-03T07:18:03.789Z,60243.43
2018-07-03T07:20:31.946Z,60252.57
2018-07-03T07:23:00.107Z,60242.41
2018-07-03T07:25:28.283Z,60256.64
2018-07-03T07:27:56.436Z,60238.35
2018-07-03T07:30:24.591Z,60255.63
2018-07-03T07:32:52.762Z,60244.45
2018-07-03T07:35:20.918Z,60246.48
2018-07-03T07:37:49.063Z,60245.46
2018-07-03T07:40:17.229Z,60233.27
2018-07-03T07:42:45.453Z,60223.11
2018-07-03T07:45:13.563Z,60255.63
2018-07-03T07:47:41.714Z,60225.14
2018-07-03T07:50:09.863Z,60246.48
2018-07-03T07:52:38.079Z,60244.45
2018-07-03T07:55:06.278Z,60222.09
2018-07-03T07:57:34.440Z,60224.12
2018-07-03T08:00:02.606Z,60229.20
2018-07-03T08:02:30.778Z,60235.30
2018-07-03T08:04:58.929Z,60215.99
2018-07-03T08:07:27.102Z,60224.12
2018-07-03T08:09:55.286Z,60231.24
2018-07-03T08:12:23.494Z,60220.06
2018-07-03T08:14:51.741Z,60225.14
2018-07-03T08:17:19.929Z,60240.38
2018-07-03T08:19:48.118Z,60221.07
2018-07-03T08:22:16.266Z,60217.01
2018-07-03T08:24:44.420Z,60215.99
2018-07-03T08:27:12.582Z,60209.90
2018-07-03T08:29:40.730Z,60223.11
2018-07-03T08:32:08.926Z,60205.83
2018-07-03T08:34:37.091Z,60218.03
2018-07-03T08:37:05.287Z,60200.75
2018-07-03T08:39:33.466Z,60204.82
2018-07-03T08:42:01.646Z,60229.20
2018-07-03T08:44:29.818Z,60207.86
2018-07-03T08:46:57.990Z,60222.09
2018-07-03T08:49:26.170Z,60220.06
2018-07-03T08:51:54.375Z,60198.72
2018-07-03T08:54:22.551Z,60211.93
2018-07-03T08:56:50.727Z,60192.62
2018-07-03T08:59:18.910Z,60207.86
2018-07-03T09:01:47.091Z,60191.61
2018-07-03T09:04:16.020Z,60177.38
2018-07-03T09:06:44.270Z,60165.19
2018-07-03T09:09:12.483Z,60189.57
2018-07-03T09:11:40.846Z,60167.22
2018-07-03T09:14:09.295Z,60178.40
2018-07-03T09:16:37.676Z,60186.52
2018-07-03T09:19:05.853Z,60185.51
2018-07-03T09:21:34.086Z,60169.25
2018-07-03T09:24:02.407Z,60167.22
2018-07-03T09:26:30.554Z,60158.07
2018-07-03T09:28:58.742Z,60169.25
2018-07-03T09:31:26.894Z,60172.30
2018-07-03T09:33:55.076Z,60157.06
2018-07-03T09:36:23.304Z,60153.00
2018-07-03T09:38:51.426Z,60162.14
2018-07-03T09:41:20.147Z,60150.96
2018-07-03T09:43:48.300Z,60140.80
2018-07-03T09:46:16.466Z,60127.59
2018-07-03T09:48:44.646Z,60129.63
2018-07-03T09:51:12.757Z,60156.04
2018-07-03T09:53:41.112Z,60125.56
2018-07-03T09:56:09.266Z,60125.56
2018-07-03T09:58:37.426Z,60114.38
2018-07-03T10:01:10.851Z,60116.41
2018-07-03T10:03:39.010Z,60116.41
2018-07-03T10:06:07.200Z,60105.24
2018-07-03T10:08:35.358Z,60101.17
2018-07-03T10:11:03.518Z,60114.38
2018-07-03T10:13:31.666Z,60087.96
2018-07-03T10:15:59.830Z,60095.08
2018-07-03T10:18:28.013Z,60082.88
2018-07-03T10:20:56.169Z,60087.96
2018-07-03T10:23:24.318Z,60071.71
2018-07-03T10:25:52.467Z,60080.85
2018-07-03T10:28:20.614Z,60071.71
2018-07-03T10:30:48.774Z,60061.54
2018-07-03T10:33:16.972Z,60074.75
2018-07-03T10:35:45.118Z,60069.67
2018-07-03T10:38:13.288Z,60065.61
2018-07-03T10:40:41.465Z,60049.35
2018-07-03T10:43:09.621Z,60053.42
2018-07-03T10:45:37.982Z,60063.57
2018-07-03T10:48:06.155Z,60051.38
2018-07-03T10:50:34.342Z,60055.45
2018-07-03T10:53:02.526Z,60054.43
2018-07-03T10:55:30.697Z,60051.38
2018-07-03T10:57:58.878Z,60055.45
2018-07-03T11:00:27.035Z,60052.40
2018-07-03T11:02:55.202Z,60052.40
2018-07-03T11:05:23.585Z,60048.34
2018-07-03T11:07:51.788Z,60046.30
2018-07-03T11:10:19.948Z,60042.24
2018-07-03T11:12:48.126Z,60020.90
2018-07-03T11:15:16.290Z,60040.21
2018-07-03T11:17:44.455Z,60025.98
2018-07-03T11:20:12.717Z,60039.19
2018-07-03T11:22:40.798Z,60049.35
2018-07-03T11:25:08.990Z,60035.12
2018-07-03T11:27:37.163Z,60040.21
2018-07-03T11:30:05.714Z,60038.18
2018-07-03T11:32:33.879Z,60045.29
2018-07-03T11:35:02.069Z,60039.19
2018-07-03T11:37:30.218Z,60039.19
2018-07-03T11:39:58.370Z,60043.25
2018-07-03T11:42:26.570Z,60046.30
2018-07-03T11:44:55.290Z,60039.19
2018-07-03T11:47:23.459Z,60058.50
2018-07-03T11:49:51.646Z,60040.21
2018-07-03T11:52:19.818Z,60044.27
2018-07-03T11:54:47.973Z,60042.24
2018-07-03T11:57:16.159Z,60044.27
2018-07-03T11:59:44.310Z,60045.29
2018-07-03T12:02:12.470Z,60046.30
2018-07-03T12:04:40.686Z,60037.16
2018-07-03T12:07:08.868Z,60042.24
2018-07-03T12:09:37.015Z,60034.11
2018-07-03T12:12:05.211Z,60029.03
2018-07-03T12:14:33.382Z,60031.06
2018-07-03T12:17:01.575Z,60036.14
2018-07-03T12:19:29.770Z,60032.08
2018-07-03T12:21:57.966Z,60025.98
2018-07-03T12:24:26.151Z,60033.09
2018-07-03T12:26:54.298Z,60043.25
2018-07-03T12:29:22.474Z,60024.96
2018-07-03T12:31:50.644Z,60027.00
2018-07-03T12:34:18.810Z,60029.03
2018-07-03T12:36:47.015Z,60017.85
2018-07-03T12:39:15.160Z,60031.06
2018-07-03T12:41:43.323Z,60023.95
2018-07-03T12:44:11.569Z,60045.29
2018-07-03T12:46:39.759Z,60042.24
2018-07-03T12:49:08.554Z,60045.29
2018-07-03T12:51:36.744Z,60048.34
2018-07-03T12:54:04.938Z,60042.24
2018-07-03T12:56:33.173Z,60038.18
2018-07-03T12:59:01.348Z,60041.22
2018-07-03T13:01:29.531Z,60028.02
2018-07-03T13:03:57.695Z,60032.08
2018-07-03T13:06:25.879Z,60023.95
2018-07-03T13:08:54.063Z,60039.19
2018-07-03T13:11:22.247Z,60036.14
2018-07-03T13:13:50.582Z,60035.12
2018-07-03T13:16:18.746Z,60037.16
2018-07-03T13:18:46.937Z,60046.30
2018-07-03T13:21:15.164Z,60064.59
2018-07-03T13:23:43.302Z,60058.50
2018-07-03T13:26:11.482Z,60056.46
2018-07-03T13:28:39.650Z,60058.50
2018-07-03T13:31:07.843Z,60073.74
2018-07-03T13:33:35.998Z,60064.59
2018-07-03T13:36:04.182Z,60057.48
2018-07-03T13:38:32.354Z,60064.59
2018-07-03T13:41:00.526Z,60056.46
2018-07-03T13:43:28.687Z,60045.29
2018-07-03T13:45:56.969Z,60045.29
2018-07-03T13:48:25.171Z,60068.66
2018-07-03T13:50:53.301Z,60053.42
2018-07-03T13:53:21.490Z,60061.54
2018-07-03T13:55:49.658Z,60058.50
2018-07-03T13:58:17.852Z,60073.74
2018-07-03T14:00:46.018Z,60068.66
2018-07-03T14:03:14.166Z,60058.50
2018-07-03T14:05:42.331Z,60051.38
2018-07-03T14:08:10.486Z,60066.62
2018-07-03T14:10:38.718Z,60052.40
2018-07-03T14:13:06.882Z,60042.24
2018-07-03T14:15:35.098Z,60051.38
2018-07-03T14:18:03.284Z,60066.62
2018-07-03T14:20:31.446Z,60049.35
2018-07-03T14:22:59.622Z,60058.50
2018-07-03T14:25:27.802Z,60070.69
2018-07-03T14:27:55.966Z,60062.56
2018-07-03T14:30:24.144Z,60060.53
2018-07-03T14:32:52.302Z,60069.67
2018-07-03T14:35:20.470Z,60069.67
2018-07-03T14:37:48.762Z,60061.54
2018-07-03T14:40:16.947Z,60088.98
2018-07-03T14:42:45.297Z,60074.75
2018-07-03T14:45:13.450Z,60078.82
2018-07-03T14:47:41.626Z,60079.84
2018-07-03T14:50:09.797Z,60076.79
2018-07-03T14:52:37.982Z,60086.95
2018-07-03T14:55:06.158Z,60097.11
2018-07-03T14:57:34.522Z,60074.75
2018-07-03T15:00:02.719Z,60086.95
2018-07-03T15:02:30.902Z,60075.77
2018-07-03T15:04:59.087Z,60068.66
2018-07-03T15:07:27.262Z,60080.85
2018-07-03T15:09:55.425Z,60063.57
2018-07-03T15:12:23.592Z,60100.16
2018-07-03T15:14:51.766Z,60070.69
2018-07-03T15:17:19.914Z,60076.79
2018-07-03T15:19:53.422Z,60081.87
2018-07-03T15:22:21.600Z,60075.77
2018-07-03T15:24:49.768Z,60090.00
2018-07-03T15:27:17.962Z,60075.77
2018-07-03T15:29:46.114Z,60087.96
2018-07-03T15:32:14.297Z,60086.95
2018-07-03T15:34:42.471Z,60088.98
2018-07-03T15:37:10.648Z,60087.96
2018-07-03T15:39:38.827Z,60099.14
2018-07-03T15:42:07.026Z,60120.48
2018-07-03T15:44:46.386Z,60084.91
2018-07-03T15:47:14.590Z,60080.85
2018-07-03T15:49:42.762Z,60081.87
2018-07-03T15:52:10.967Z,60080.85
2018-07-03T15:54:39.136Z,60086.95
2018-07-03T15:57:07.294Z,60069.67
2018-07-03T15:59:35.462Z,60087.96
2018-07-03T16:02:03.666Z,60093.04
2018-07-03T16:05:10.751Z,60078.82
2018-07-03T16:07:54.244Z,60110.32
2018-07-03T16:10:22.458Z,60106.25
2018-07-03T16:12:50.610Z,60073.74
2018-07-03T16:15:18.786Z,60097.11
2018-07-03T16:17:47.083Z,60085.93
2018-07-03T16:20:20.618Z,60090.00
2018-07-03T16:22:48.818Z,60088.98
2018-07-03T16:25:17.008Z,60077.80
2018-07-03T16:27:45.394Z,60088.98
2018-07-03T16:30:13.595Z,60095.08
2018-07-03T16:32:41.846Z,60106.25
2018-07-03T16:35:09.990Z,60088.98
2018-07-03T16:37:38.186Z,60103.20
2018-07-03T16:40:06.366Z,60096.09
2018-07-03T16:42:34.526Z,60086.95
2018-07-03T16:45:02.706Z,60078.82
2018-07-03T16:47:30.875Z,60094.06
2018-07-03T16:49:59.110Z,60091.01
2018-07-03T16:52:27.295Z,60087.96
2018-07-03T16:54:55.480Z,60090.00
2018-07-03T16:57:23.699Z,60094.06
2018-07-03T16:59:51.926Z,60086.95
2018-07-03T17:02:20.118Z,60077.80
2018-07-03T17:04:48.298Z,60066.62
2018-07-03T17:07:16.494Z,60113.37
2018-07-03T17:09:44.649Z,60079.84
2018-07-03T17:12:12.866Z,60088.98
2018-07-03T17:14:41.088Z,60087.96
2018-07-03T17:17:09.498Z,60083.90
2018-07-03T17:19:38.978Z,60083.90
2018-07-03T17:22:07.392Z,60094.06
2018-07-03T17:24:36.189Z,60072.72
2018-07-03T17:27:04.788Z,60105.24
2018-07-03T17:29:33.570Z,60108.29
2018-07-03T17:32:02.059Z,60096.09
2018-07-03T17:34:30.457Z,60109.30
2018-07-03T17:36:58.713Z,60088.98
2018-07-03T17:39:38.235Z,60098.12
2018-07-03T17:42:17.778Z,60114.38
2018-07-03T17:46:02.550Z,60106.25
2018-07-03T17:48:30.826Z,60107.27
2018-07-03T17:50:59.546Z,60117.43
2018-07-03T17:53:27.754Z,60095.08
2018-07-03T17:55:56.465Z,60107.27
2018-07-03T17:58:24.747Z,60093.04
2018-07-03T18:00:53.179Z,60098.12
2018-07-03T18:03:21.225Z,60102.19
2018-07-03T18:05:49.403Z,60107.27
2018-07-03T18:08:17.578Z,60097.11
2018-07-03T18:10:45.743Z,60105.24
2018-07-03T18:13:13.902Z,60106.25
2018-07-03T18:15:42.067Z,60109.30
2018-07-03T18:18:10.226Z,60109.30
2018-07-03T18:20:38.406Z,60110.32
2018-07-03T18:23:06.566Z,60117.43
2018-07-03T18:25:34.746Z,60116.41
2018-07-03T18:28:02.907Z,60113.37
2018-07-03T18:30:31.053Z,60121.50
2018-07-03T18:32:59.278Z,60106.25
2018-07-03T18:35:27.401Z,60133.69
2018-07-03T18:37:55.566Z,60107.27
2018-07-03T18:40:23.762Z,60112.35
2018-07-03T18:42:51.936Z,60114.38
2018-07-03T18:45:20.768Z,60130.64
2018-07-03T18:47:49.182Z,60125.56
2018-07-03T18:50:17.466Z,60126.57
2018-07-03T18:52:45.722Z,60125.56
2018-07-03T18:55:13.914Z,60121.50
2018-07-03T18:57:42.082Z,60135.72
2018-07-03T19:00:10.262Z,60138.77
2018-07-03T19:02:38.436Z,60121.50
2018-07-03T19:05:06.615Z,60138.77
2018-07-03T19:07:34.790Z,60147.91
2018-07-03T19:10:02.992Z,60132.67
2018-07-03T19:12:31.146Z,60146.90
2018-07-03T19:14:59.494Z,60134.70
2018-07-03T19:17:27.690Z,60148.93
2018-07-03T19:19:55.873Z,60160.11
2018-07-03T19:22:24.090Z,60158.07
2018-07-03T19:24:52.266Z,60154.01
2018-07-03T19:27:20.462Z,60137.75
2018-07-03T19:29:48.659Z,60147.91
2018-07-03T19:32:16.834Z,60166.20
2018-07-03T19:34:45.114Z,60162.14
2018-07-03T19:37:13.278Z,60174.33
2018-07-03T19:39:41.501Z,60147.91
2018-07-03T19:42:09.649Z,60149.95
2018-07-03T19:44:37.778Z,60157.06
2018-07-03T19:47:05.946Z,60163.16
2018-07-03T19:49:34.159Z,60161.12
2018-07-03T19:52:02.327Z,60172.30
2018-07-03T19:54:30.490Z,60179.41
2018-07-03T19:56:58.670Z,60156.04
2018-07-03T19:59:26.851Z,60164.17
2018-07-03T20:01:55.035Z,60175.35
2018-07-03T20:04:23.454Z,60172.30
2018-07-03T20:06:51.846Z,60171.29
2018-07-03T20:09:20.023Z,60180.43
2018-07-03T20:11:48.190Z,60186.52
2018-07-03T20:14:16.376Z,60189.57
2018-07-03T20:16:44.554Z,60166.20
2018-07-03T20:19:13.983Z,60181.45
2018-07-03T20:21:43.859Z,60191.61
2018-07-03T20:24:12.546Z,60177.38
2018-07-03T20:26:41.239Z,60193.64
2018-07-03T20:29:09.591Z,60173.32
2018-07-03T20:31:37.750Z,60200.75
2018-07-03T20:34:05.940Z,60190.59
2018-07-03T20:36:34.115Z,60182.46
2018-07-03T20:39:02.618Z,60203.80
2018-07-03T20:41:30.790Z,60197.70
2018-07-03T20:43:58.986Z,60194.66
2018-07-03T20:46:27.155Z,60184.49
2018-07-03T20:48:55.364Z,60191.61
2018-07-03T20:51:23.498Z,60205.83
2018-07-03T20:53:51.666Z,60196.69
2018-07-03T20:56:19.826Z,60181.45
2018-07-03T20:58:47.977Z,60196.69
2018-07-03T21:01:16.146Z,60209.90
2018-07-03T21:03:44.389Z,60217.01
2018-07-03T21:06:12.560Z,60192.62
2018-07-03T21:08:40.662Z,60184.49
2018-07-03T21:11:08.838Z,60202.79
2018-07-03T21:13:37.013Z,60202.79
2018-07-03T21:16:05.184Z,60196.69
2018-07-03T21:18:33.362Z,60205.83
2018-07-03T21:21:01.566Z,60220.06
2018-07-03T21:23:29.738Z,60195.67
2018-07-03T21:25:57.917Z,60206.85
2018-07-03T21:28:26.094Z,60192.62
2018-07-03T21:30:54.266Z,60192.62
2018-07-03T21:33:22.446Z,60240.38
2018-07-03T21:35:50.617Z,60208.88
2018-07-03T21:38:18.792Z,60186.52
2018-07-03T21:40:47.090Z,60213.96
2018-07-03T21:43:15.258Z,60190.59
2018-07-03T21:45:43.429Z,60209.90
2018-07-03T21:48:11.607Z,60197.70
2018-07-03T21:50:39.780Z,60199.74
2018-07-03T21:53:07.951Z,60207.86
2018-07-03T21:55:36.098Z,60206.85
2018-07-03T21:58:04.266Z,60209.90
2018-07-03T22:00:35.644Z,60206.85
2018-07-03T22:03:04.938Z,60204.82
2018-07-03T22:05:33.102Z,60215.99
2018-07-03T22:08:01.283Z,60212.95
2018-07-03T22:10:29.575Z,60204.82
2018-07-03T22:12:57.734Z,60225.14
2018-07-03T22:15:25.902Z,60202.79
2018-07-03T22:17:54.100Z,60205.83
2018-07-03T22:20:22.251Z,60198.72
2018-07-03T22:22:50.402Z,60205.83
2018-07-03T22:25:18.563Z,60196.69
2018-07-03T22:27:46.721Z,60205.83
2018-07-03T22:30:14.922Z,60209.90
2018-07-03T22:32:43.090Z,60201.77
2018-07-03T22:35:11.297Z,60210.91
2018-07-03T22:37:39.414Z,60210.91
2018-07-03T22:40:07.754Z,60192.62
2018-07-03T22:42:35.911Z,60215.99
2018-07-03T22:45:04.108Z,60206.85
2018-07-03T22:47:32.271Z,60208.88
2018-07-03T22:50:00.559Z,60199.74
2018-07-03T22:52:28.726Z,60199.74
2018-07-03T22:54:56.908Z,60205.83
2018-07-03T22:57:25.050Z,60199.74
2018-07-03T22:59:53.230Z,60178.40
2018-07-03T23:02:21.403Z,60202.79
2018-07-03T23:04:49.574Z,60202.79
2018-07-03T23:07:17.743Z,60201.77
2018-07-03T23:09:45.898Z,60192.62
2018-07-03T23:12:19.422Z,60219.04
2018-07-03T23:14:48.838Z,60211.93
2018-07-03T23:17:17.000Z,60198.72
2018-07-03T23:19:45.506Z,60226.16
2018-07-03T23:22:13.785Z,60197.70
2018-07-03T23:24:42.479Z,60224.12
2018-07-03T23:27:10.851Z,60210.91
2018-07-03T23:29:39.138Z,60189.57
2018-07-03T23:32:07.298Z,60213.96
2018-07-03T23:34:35.477Z,60190.59
2018-07-03T23:37:03.659Z,60204.82
2018-07-03T23:39:31.823Z,60219.04
2018-07-03T23:42:00.201Z,60202.79
2018-07-03T23:44:28.398Z,60208.88
2018-07-03T23:47:07.827Z,60202.79
2018-07-03T23:49:47.242Z,60213.96
2018-07-03T23:52:26.694Z,60188.56
2018-07-03T23:55:06.279Z,60192.62
2018-07-03T23:57:45.738Z,60223.11
